Time;durP1;ratioP1;P1;durP2;ratioP2;P2;SDS_P1;SDS_P2;PMS_P1;PMS_P2;Temp;Humidity;BMP_temperature;BMP_pressure;BME280_temperature;BME280_humidity;BME280_pressure;Samples;Min_cycle;Max_cycle;Signal;HPM_P1;HPM_P2
2024/01/28 00:01:58;;;;;;;15.40;3.20;;;;;;;-128.00;-1.00;-1.00;101045;1281;1002772;-31
2024/01/28 00:04:23;;;;;;;15.50;2.70;;;;;;;-128.00;-1.00;-1.00;100984;1282;1002853;-33
2024/01/28 00:06:49;;;;;;;15.20;3.10;;;;;;;-128.00;-1.00;-1.00;100976;1286;1002689;-32
2024/01/28 00:09:14;;;;;;;11.70;2.60;;;;;;;-128.00;-1.00;-1.00;100980;1285;1004704;-30
2024/01/28 00:11:42;;;;;;;9.30;1.90;;;;;;;-128.00;-1.00;-1.00;100953;1285;1002610;-30
2024/01/28 00:14:08;;;;;;;13.90;3.00;;;;;;;-128.00;-1.00;-1.00;100984;1282;1004773;-30
2024/01/28 00:16:34;;;;;;;13.20;2.50;;;;;;;-128.00;-1.00;-1.00;101046;1282;1002694;-30
2024/01/28 00:19:00;;;;;;;19.50;3.20;;;;;;;-128.00;-1.00;-1.00;100976;1282;1004231;-32
2024/01/28 00:21:26;;;;;;;16.40;2.60;;;;;;;-128.00;-1.00;-1.00;101030;1285;1002403;-31
2024/01/28 00:23:52;;;;;;;10.50;2.80;;;;;;;-128.00;-1.00;-1.00;101012;1285;1002889;-29
2024/01/28 00:26:19;;;;;;;11.40;2.50;;;;;;;-128.00;-1.00;-1.00;101022;1281;1002936;-29
2024/01/28 00:28:45;;;;;;;13.60;3.30;;;;;;;-128.00;-1.00;-1.00;101067;1287;1002929;-31
2024/01/28 00:31:10;;;;;;;11.60;2.40;;;;;;;-128.00;-1.00;-1.00;100944;1281;1003784;-32
2024/01/28 00:33:36;;;;;;;10.40;2.30;;;;;;;-128.00;-1.00;-1.00;101017;1283;1003439;-31
2024/01/28 00:36:02;;;;;;;10.10;2.60;;;;;;;-128.00;-1.00;-1.00;100919;1288;1002658;-30
2024/01/28 00:38:31;;;;;;;15.70;3.40;;;;;;;-128.00;-1.00;-1.00;101002;1287;1002411;-30
2024/01/28 00:41:00;;;;;;;19.00;3.40;;;;;;;-128.00;-1.00;-1.00;101015;1286;1006086;-30
2024/01/28 00:43:27;;;;;;;12.20;2.60;;;;;;;-128.00;-1.00;-1.00;101080;1288;1010326;-30
2024/01/28 00:45:52;;;;;;;12.10;2.70;;;;;;;-128.00;-1.00;-1.00;100911;1287;1003120;-29
2024/01/28 00:48:18;;;;;;;11.00;2.90;;;;;;;-128.00;-1.00;-1.00;101030;1284;1002774;-31
2024/01/28 00:50:43;;;;;;;14.10;2.70;;;;;;;-128.00;-1.00;-1.00;101000;1282;1003750;-32
2024/01/28 00:53:09;;;;;;;8.10;2.50;;;;;;;-128.00;-1.00;-1.00;100927;1286;1002762;-29
2024/01/28 00:55:35;;;;;;;;;;;;;;;-128.00;-1.00;-1.00;100994;1282;1002703;-32
2024/01/28 00:58:02;;;;;;;15.60;2.30;;;;;;;-128.00;-1.00;-1.00;101006;1282;1002839;-30
2024/01/28 01:00:28;;;;;;;16.10;3.00;;;;;;;-128.00;-1.00;-1.00;101077;1284;1002767;-31
2024/01/28 01:02:54;;;;;;;5.90;1.80;;;;;;;-128.00;-1.00;-1.00;101017;1286;1004299;-32
2024/01/28 01:05:19;;;;;;;;;;;;;;;-128.00;-1.00;-1.00;100976;1287;1002728;-31
2024/01/28 01:07:45;;;;;;;14.40;2.40;;;;;;;-128.00;-1.00;-1.00;101032;1286;1003818;-31
2024/01/28 01:10:11;;;;;;;15.30;3.10;;;;;;;-128.00;-1.00;-1.00;100961;1281;1002716;-32
2024/01/28 01:12:36;;;;;;;9.90;2.30;;;;;;;-128.00;-1.00;-1.00;100920;1281;1002544;-32
2024/01/28 01:15:03;;;;;;;8.90;1.90;;;;;;;-128.00;-1.00;-1.00;101046;1282;1003842;-33
2024/01/28 01:17:29;;;;;;;13.60;3.00;;;;;;;-128.00;-1.00;-1.00;101017;1281;1003108;-29
2024/01/28 01:19:55;;;;;;;19.80;3.20;;;;;;;-128.00;-1.00;-1.00;100976;1286;1002998;-33
2024/01/28 01:22:20;;;;;;;15.70;2.40;;;;;;;-128.00;-1.00;-1.00;100950;1287;1002649;-29
2024/01/28 01:24:46;;;;;;;15.50;3.40;;;;;;;-128.00;-1.00;-1.00;100981;1285;1003246;-30
2024/01/28 01:27:12;;;;;;;11.50;3.10;;;;;;;-128.00;-1.00;-1.00;101065;1285;1003692;-32
2024/01/28 01:29:37;;;;;;;11.50;3.00;;;;;;;-128.00;-1.00;-1.00;100944;1281;1002995;-32
2024/01/28 01:32:03;;;;;;;9.40;2.70;;;;;;;-128.00;-1.00;-1.00;101004;1285;1002887;-31
2024/01/28 01:34:29;;;;;;;14.40;3.20;;;;;;;-128.00;-1.00;-1.00;100959;1285;1003432;-30
2024/01/28 01:36:55;;;;;;;11.10;3.90;;;;;;;-128.00;-1.00;-1.00;100979;1285;1002728;-30
2024/01/28 01:39:20;;;;;;;10.30;3.10;;;;;;;-128.00;-1.00;-1.00;101022;1287;1004768;-31
2024/01/28 01:41:46;;;;;;;10.60;2.60;;;;;;;-128.00;-1.00;-1.00;101036;1285;1002722;-33
2024/01/28 01:44:12;;;;;;;11.50;3.10;;;;;;;-128.00;-1.00;-1.00;100973;1283;1003145;-32
2024/01/28 01:46:38;;;;;;;16.10;4.60;;;;;;;-128.00;-1.00;-1.00;100944;1282;1002589;-31
2024/01/28 01:49:05;;;;;;;10.40;3.40;;;;;;;-128.00;-1.00;-1.00;100984;1285;1002628;-33
2024/01/28 01:51:31;;;;;;;11.70;3.10;;;;;;;-128.00;-1.00;-1.00;100966;1287;1003320;-33
2024/01/28 02:34:50;;;;;;;17.90;3.80;;;;;;;3.42;100.00;101221.77;103827;1285;611910;-32
2024/01/28 02:37:16;;;;;;;11.80;3.10;;;;;;;3.59;100.00;101225.59;103846;1296;152843;-31
2024/01/28 02:39:42;;;;;;;9.90;2.60;;;;;;;3.61;100.00;101226.73;104227;1285;60404;-31
2024/01/28 02:42:08;;;;;;;13.00;2.20;;;;;;;3.62;100.00;101227.52;104020;1285;60503;-31
2024/01/28 02:44:33;;;;;;;;;;;;;;;3.77;100.00;101234.26;104159;1286;61046;-31
2024/01/28 02:47:02;;;;;;;16.90;3.10;;;;;;;3.80;100.00;101235.31;103920;1285;60249;-37
2024/01/28 02:49:28;;;;;;;19.40;4.20;;;;;;;3.73;100.00;101236.00;104170;1286;60497;-32
2024/01/28 02:51:54;;;;;;;13.20;3.60;;;;;;;3.72;100.00;101236.58;104088;1283;60468;-30
2024/01/28 02:54:20;;;;;;;21.50;3.60;;;;;;;3.75;100.00;101234.04;104169;1295;60919;-29
2024/01/28 02:56:45;;;;;;;;;;;;;;;3.78;100.00;101230.85;104220;1285;60706;-31
2024/01/28 02:59:11;;;;;;;16.10;3.00;;;;;;;3.84;100.00;101234.00;104273;1296;60910;-31
2024/01/28 03:01:49;;;;;;;12.30;2.70;;;;;;;3.84;100.00;101241.20;104227;1299;60887;-29
2024/01/28 03:04:15;;;;;;;11.10;3.00;;;;;;;3.90;100.00;101240.64;104124;1279;60763;-30
2024/01/28 03:06:41;;;;;;;10.00;2.40;;;;;;;3.86;100.00;101246.92;104102;1286;60871;-30
2024/01/28 03:09:07;;;;;;;13.20;2.80;;;;;;;3.78;100.00;101246.77;104220;1285;60977;-33
2024/01/28 03:11:33;;;;;;;19.90;2.50;;;;;;;3.88;100.00;101245.36;104183;1285;60853;-31
2024/01/28 03:13:59;;;;;;;;;;;;;;;3.90;100.00;101247.89;104196;1296;60869;-30
2024/01/28 03:16:24;;;;;;;11.80;2.20;;;;;;;3.85;100.00;101245.92;104153;1294;60872;-32
2024/01/28 03:18:50;;;;;;;8.20;2.10;;;;;;;3.82;100.00;101247.19;104126;1286;60681;-31
2024/01/28 03:21:16;;;;;;;9.00;1.90;;;;;;;3.81;100.00;101243.02;104172;1292;60894;-31
2024/01/28 03:23:41;;;;;;;9.50;2.00;;;;;;;3.83;100.00;101247.54;104236;1286;60867;-32
2024/01/28 03:26:10;;;;;;;10.00;2.10;;;;;;;3.89;100.00;101246.58;104184;1289;60738;-30
2024/01/28 03:28:36;;;;;;;13.80;3.40;;;;;;;3.90;100.00;101248.99;104114;1285;70602;-30
2024/01/28 03:31:02;;;;;;;21.00;3.50;;;;;;;3.82;100.00;101251.47;104126;1293;60973;-32
2024/01/28 03:33:27;;;;;;;9.20;2.40;;;;;;;3.86;100.00;101255.10;104115;1288;60821;-33
2024/01/28 03:35:53;;;;;;;23.00;3.40;;;;;;;3.89;100.00;101250.63;104102;1286;60897;-30
2024/01/28 03:38:18;;;;;;;11.40;1.80;;;;;;;3.89;100.00;101247.77;104067;1284;60810;-30
2024/01/28 03:40:44;;;;;;;11.70;2.80;;;;;;;3.87;100.00;101252.70;104119;1293;60888;-30
2024/01/28 03:43:10;;;;;;;16.80;3.00;;;;;;;3.83;100.00;101256.88;104129;1298;60859;-33
2024/01/28 03:45:35;;;;;;;10.70;3.20;;;;;;;3.75;100.00;101256.75;104092;1280;60728;-32
2024/01/28 03:48:01;;;;;;;14.70;3.50;;;;;;;3.78;100.00;101260.95;104034;1293;60759;-30
2024/01/28 03:50:27;;;;;;;12.30;3.00;;;;;;;3.82;100.00;101254.52;104060;1285;60817;-30
2024/01/28 03:52:52;;;;;;;;;;;;;;;3.80;100.00;101256.17;104071;1294;60859;-29
2024/01/28 03:55:18;;;;;;;15.20;3.10;;;;;;;3.76;100.00;101256.67;104023;1285;60922;-32
2024/01/28 03:57:44;;;;;;;12.90;2.90;;;;;;;3.74;100.00;101262.13;104041;1285;60712;-31
2024/01/28 04:00:12;;;;;;;19.20;3.60;;;;;;;3.75;100.00;101260.30;104044;1284;60759;-30
2024/01/28 04:02:41;;;;;;;10.40;2.60;;;;;;;3.72;100.00;101268.84;104126;1293;60795;-30
2024/01/28 04:05:07;;;;;;;6.80;1.40;;;;;;;3.79;100.00;101269.39;104117;1285;72958;-32
2024/01/28 04:07:33;;;;;;;;;;;;;;;3.82;100.00;101270.41;104187;1285;60884;-30
2024/01/28 04:09:58;;;;;;;17.00;3.20;;;;;;;3.72;100.00;101272.73;104055;1301;60846;-32
2024/01/28 04:12:24;;;;;;;15.30;3.50;;;;;;;3.78;100.00;101272.31;104115;1285;60890;-32
2024/01/28 04:14:50;;;;;;;19.40;3.00;;;;;;;3.76;100.00;101275.50;104075;1296;60874;-30
2024/01/28 04:17:16;;;;;;;9.30;3.00;;;;;;;3.71;100.00;101276.48;104152;1292;60887;-30
2024/01/28 04:19:41;;;;;;;8.40;2.50;;;;;;;3.78;100.00;101265.91;104162;1285;60783;-32
2024/01/28 04:22:10;;;;;;;14.50;3.60;;;;;;;3.74;100.00;101269.95;104087;1293;60785;-30
2024/01/28 04:24:36;;;;;;;15.60;3.00;;;;;;;3.74;100.00;101278.05;104089;1285;60945;-31
2024/01/28 04:27:02;;;;;;;16.70;3.70;;;;;;;3.66;100.00;101275.95;104150;1285;60804;-31
2024/01/28 04:29:28;;;;;;;15.50;3.30;;;;;;;3.66;100.00;101280.54;104268;1286;60832;-32
2024/01/28 04:31:53;;;;;;;15.30;3.10;;;;;;;3.65;100.00;101282.77;104117;1301;60897;-32
2024/01/28 04:34:20;;;;;;;13.50;3.10;;;;;;;3.65;100.00;101287.54;104059;1299;60871;-30
2024/01/28 04:36:46;;;;;;;14.60;2.60;;;;;;;3.60;100.00;101288.42;104058;1284;60853;-31
2024/01/28 04:39:12;;;;;;;;;;;;;;;3.63;100.00;101293.55;104193;1285;60766;-31
2024/01/28 04:41:38;;;;;;;9.00;2.70;;;;;;;3.68;100.00;101291.98;104069;1301;60820;-31
2024/01/28 04:44:04;;;;;;;;;;;;;;;3.66;100.00;101297.91;103947;1285;60788;-30
2024/01/28 04:46:29;;;;;;;5.60;1.80;;;;;;;3.68;100.00;101295.10;104108;1300;61242;-31
2024/01/28 04:48:55;;;;;;;15.80;3.10;;;;;;;3.72;100.00;101294.85;104187;1286;60805;-29
2024/01/28 04:51:21;;;;;;;;;;;;;;;3.56;100.00;101300.72;104078;1286;60817;-30
2024/01/28 04:53:47;;;;;;;12.20;2.70;;;;;;;3.55;100.00;101304.38;104055;1283;60930;-29
2024/01/28 04:56:12;;;;;;;15.70;2.90;;;;;;;3.57;100.00;101310.05;104100;1286;60750;-30
2024/01/28 04:58:38;;;;;;;14.00;3.90;;;;;;;3.64;100.00;101308.52;104104;1299;60974;-32
2024/01/28 05:01:03;;;;;;;13.40;2.10;;;;;;;3.62;100.00;101306.70;104122;1286;60884;-31
2024/01/28 05:03:29;;;;;;;17.40;3.90;;;;;;;3.72;100.00;101303.70;103993;1285;60805;-32
2024/01/28 05:05:55;;;;;;;13.30;3.70;;;;;;;3.71;100.00;101308.77;104095;1300;60783;-32
2024/01/28 05:08:20;;;;;;;10.40;2.90;;;;;;;3.64;100.00;101305.29;104237;1286;60745;-30
2024/01/28 05:10:46;;;;;;;14.60;2.90;;;;;;;3.68;100.00;101311.61;104119;1294;61545;-30
2024/01/28 05:13:12;;;;;;;14.60;2.10;;;;;;;3.60;100.00;101315.52;104028;1301;60885;-31
2024/01/28 05:15:37;;;;;;;13.10;2.60;;;;;;;3.62;100.00;101318.04;104025;1299;60817;-31
2024/01/28 05:18:03;;;;;;;17.40;3.70;;;;;;;3.50;100.00;101322.77;104071;1285;60881;-33
2024/01/28 05:20:29;;;;;;;16.70;3.40;;;;;;;3.58;100.00;101328.41;104142;1298;60878;-31
2024/01/28 05:22:55;;;;;;;15.90;3.10;;;;;;;3.48;100.00;101326.99;104098;1293;60905;-31
2024/01/28 05:25:20;;;;;;;11.00;1.90;;;;;;;3.48;100.00;101328.00;104124;1284;69661;-30
2024/01/28 05:27:46;;;;;;;11.90;2.70;;;;;;;3.55;100.00;101322.27;104051;1282;60804;-31
2024/01/28 05:30:12;;;;;;;26.30;3.40;;;;;;;3.59;100.00;101319.50;104013;1286;60947;-30
2024/01/28 05:32:38;;;;;;;12.40;2.30;;;;;;;3.57;100.00;101320.17;104087;1293;60882;-29
2024/01/28 05:35:04;;;;;;;14.70;2.40;;;;;;;3.50;100.00;101319.09;104062;1284;60853;-34
2024/01/28 05:37:30;;;;;;;22.20;2.20;;;;;;;3.56;100.00;101325.54;104158;1285;60787;-30
2024/01/28 05:39:57;;;;;;;14.20;3.70;;;;;;;3.51;100.00;101325.88;104056;1285;60761;-29
2024/01/28 05:42:22;;;;;;;10.50;2.70;;;;;;;3.49;100.00;101327.94;104090;1285;60843;-31
2024/01/28 05:44:48;;;;;;;12.60;3.90;;;;;;;3.46;100.00;101331.85;104050;1285;60910;-29
2024/01/28 05:47:14;;;;;;;14.10;2.90;;;;;;;3.42;100.00;101337.67;104089;1286;60769;-29
2024/01/28 05:49:40;;;;;;;13.20;3.40;;;;;;;3.40;100.00;101342.94;104163;1284;60769;-34
2024/01/28 05:52:06;;;;;;;4.70;1.60;;;;;;;3.52;100.00;101341.70;104103;1284;69527;-32
2024/01/28 05:54:32;;;;;;;11.90;1.50;;;;;;;3.59;100.00;101336.30;104063;1293;60901;-32
2024/01/28 05:56:58;;;;;;;13.50;2.80;;;;;;;3.51;100.00;101345.35;104085;1286;60890;-30
2024/01/28 05:59:24;;;;;;;16.80;3.80;;;;;;;3.52;100.00;101346.72;104224;1292;60901;-31
2024/01/28 06:01:50;;;;;;;16.30;4.90;;;;;;;3.47;100.00;101354.45;104062;1296;60897;-30
2024/01/28 06:04:15;;;;;;;13.40;3.10;;;;;;;3.33;100.00;101357.35;104069;1296;60930;-31
2024/01/28 06:06:42;;;;;;;21.50;4.20;;;;;;;3.35;100.00;101357.40;104162;1293;60793;-34
2024/01/28 06:09:09;;;;;;;9.00;3.00;;;;;;;3.29;100.00;101362.41;104026;1301;60891;-32
2024/01/28 06:11:36;;;;;;;21.10;5.00;;;;;;;3.29;100.00;101362.27;104129;1282;60820;-30
2024/01/28 06:14:02;;;;;;;16.30;3.90;;;;;;;3.30;100.00;101362.70;104032;1296;60874;-30
2024/01/28 06:16:27;;;;;;;17.00;4.60;;;;;;;3.31;100.00;101363.34;104098;1286;60778;-31
2024/01/28 06:18:53;;;;;;;19.70;6.00;;;;;;;3.30;100.00;101362.17;104115;1285;60786;-31
2024/01/28 06:21:19;;;;;;;22.80;5.40;;;;;;;3.25;100.00;101363.36;104155;1286;61084;-32
2024/01/28 06:23:45;;;;;;;21.50;4.40;;;;;;;3.26;100.00;101358.91;104150;1295;60919;-31
2024/01/28 06:26:10;;;;;;;;;;;;;;;3.36;100.00;101360.92;104057;1286;60881;-31
2024/01/28 06:28:36;;;;;;;11.00;2.20;;;;;;;3.38;100.00;101360.59;104222;1295;60901;-29
2024/01/28 06:31:02;;;;;;;12.00;3.40;;;;;;;3.49;100.00;101356.66;104081;1285;72123;-32
2024/01/28 06:33:28;;;;;;;;;;;;;;;3.48;100.00;101360.23;104104;1293;60802;-32
2024/01/28 06:35:53;;;;;;;21.30;4.60;;;;;;;3.41;100.00;101363.73;103962;1299;61365;-32
2024/01/28 06:38:19;;;;;;;16.30;4.30;;;;;;;3.37;100.00;101364.73;104046;1286;61707;-30
2024/01/28 06:40:44;;;;;;;20.90;3.60;;;;;;;3.38;100.00;101364.80;104143;1292;61711;-30
2024/01/28 06:43:10;;;;;;;15.80;3.00;;;;;;;3.46;100.00;101363.79;104050;1296;61777;-37
2024/01/28 06:45:36;;;;;;;21.30;4.30;;;;;;;3.44;100.00;101362.84;104185;1285;61688;-32
2024/01/28 06:48:02;;;;;;;20.10;3.90;;;;;;;3.35;100.00;101370.17;103989;1286;72250;-31
2024/01/28 06:50:27;;;;;;;16.00;4.60;;;;;;;3.40;100.00;101371.80;104047;1285;61719;-31
2024/01/28 06:52:53;;;;;;;16.30;4.00;;;;;;;3.40;100.00;101374.63;104021;1286;61660;-32
2024/01/28 06:55:19;;;;;;;19.20;4.20;;;;;;;3.37;100.00;101373.36;104032;1283;61585;-31
2024/01/28 06:57:45;;;;;;;22.40;5.40;;;;;;;3.36;100.00;101375.95;104066;1290;62345;-30
2024/01/28 07:00:13;;;;;;;10.80;3.90;;;;;;;3.32;100.00;101381.15;104102;1302;61726;-31
2024/01/28 07:02:39;;;;;;;12.20;4.20;;;;;;;3.41;100.00;101379.86;104040;1283;61745;-30
2024/01/28 07:05:05;;;;;;;16.30;4.00;;;;;;;3.34;100.00;101384.04;104171;1286;61794;-32
2024/01/28 07:07:31;;;;;;;9.10;3.60;;;;;;;3.35;100.00;101383.79;104053;1285;61694;-32
2024/01/28 07:09:57;;;;;;;;;;;;;;;3.43;100.00;101384.66;104034;1283;61573;-30
2024/01/28 07:12:22;;;;;;;28.70;6.80;;;;;;;3.37;100.00;101378.71;104103;1295;61814;-32
2024/01/28 07:14:48;;;;;;;23.50;5.20;;;;;;;3.32;100.00;101374.10;104083;1286;61703;-32
2024/01/28 07:17:14;;;;;;;11.00;3.40;;;;;;;3.30;100.00;101379.20;104007;1289;62226;-32
2024/01/28 07:19:41;;;;;;;11.70;2.50;;;;;;;3.40;100.00;101384.51;104069;1295;62151;-32
2024/01/28 07:22:07;;;;;;;13.10;3.90;;;;;;;3.40;100.00;101384.52;104113;1280;61595;-32
2024/01/28 07:24:33;;;;;;;20.00;4.00;;;;;;;3.45;100.00;101387.58;104021;1285;61669;-32
2024/01/28 07:26:58;;;;;;;21.50;3.90;;;;;;;3.47;100.00;101391.66;104116;1292;62075;-29
2024/01/28 07:29:24;;;;;;;26.00;4.20;;;;;;;3.47;100.00;101397.19;104117;1299;61710;-34
2024/01/28 07:31:51;;;;;;;14.90;3.00;;;;;;;3.52;100.00;101396.98;104048;1286;61626;-32
2024/01/28 07:34:19;;;;;;;11.00;4.30;;;;;;;3.59;100.00;101391.38;104105;1296;61687;-31
2024/01/28 07:36:47;;;;;;;20.40;4.30;;;;;;;3.51;100.00;101393.70;104069;1280;61618;-31
2024/01/28 07:39:14;;;;;;;14.80;5.10;;;;;;;3.47;100.00;101391.86;104116;1283;73797;-32
2024/01/28 07:41:41;;;;;;;20.60;4.60;;;;;;;3.50;100.00;101393.64;104111;1283;68089;-31
2024/01/28 07:44:07;;;;;;;19.30;3.90;;;;;;;3.53;100.00;101387.20;104028;1284;72631;-31
2024/01/28 07:46:33;;;;;;;7.20;2.20;;;;;;;3.54;100.00;101390.89;104131;1283;61723;-32
2024/01/28 07:48:59;;;;;;;16.00;3.60;;;;;;;3.62;100.00;101397.19;104046;1283;62081;-31
2024/01/28 07:51:25;;;;;;;;;;;;;;;3.63;100.00;101395.77;104059;1286;61748;-31
2024/01/28 07:53:50;;;;;;;12.70;2.80;;;;;;;3.55;100.00;101402.47;104032;1286;61708;-32
2024/01/28 07:56:16;;;;;;;13.00;2.80;;;;;;;3.65;100.00;101399.85;104054;1285;61710;-32
2024/01/28 07:58:42;;;;;;;;;;;;;;;3.63;100.00;101399.32;104079;1296;62076;-32
2024/01/28 08:01:08;;;;;;;12.00;2.70;;;;;;;3.61;100.00;101397.24;104107;1285;61698;-31
2024/01/28 08:03:33;;;;;;;16.60;2.90;;;;;;;3.67;100.00;101395.80;104162;1292;61716;-33
2024/01/28 08:05:59;;;;;;;12.50;2.70;;;;;;;3.74;100.00;101394.26;104290;1285;74111;-31
2024/01/28 08:08:25;;;;;;;8.00;1.70;;;;;;;3.71;100.00;101395.03;104009;1286;61799;-33
2024/01/28 08:10:50;;;;;;;11.70;2.80;;;;;;;3.77;100.00;101399.59;104004;1294;61704;-31
2024/01/28 08:13:16;;;;;;;11.00;2.60;;;;;;;3.80;100.00;101396.04;104010;1296;61720;-29
2024/01/28 08:15:43;;;;;;;13.80;2.60;;;;;;;3.84;100.00;101396.80;104168;1285;61641;-32
2024/01/28 08:18:08;;;;;;;9.00;2.10;;;;;;;4.12;100.00;101395.58;104044;1285;61612;-32
2024/01/28 08:20:34;;;;;;;22.30;3.20;;;;;;;3.93;100.00;101401.00;104194;1285;61706;-33
2024/01/28 08:22:59;;;;;;;5.80;2.10;;;;;;;3.95;100.00;101405.25;104008;1284;61621;-30
2024/01/28 08:25:25;;;;;;;15.90;3.50;;;;;;;3.98;100.00;101407.75;104229;1292;61739;-31
2024/01/28 08:27:50;;;;;;;44.90;14.30;;;;;;;3.81;100.00;101417.94;104101;1296;61685;-31
2024/01/28 08:30:22;;;;;;;11.50;4.10;;;;;;;4.00;100.00;101410.80;104137;1293;61720;-30
2024/01/28 08:32:48;;;;;;;21.50;7.10;;;;;;;3.83;100.00;101417.98;104171;1284;73992;-29
2024/01/28 08:35:14;;;;;;;21.40;7.70;;;;;;;3.86;100.00;101422.02;104144;1285;61621;-31
2024/01/28 08:37:39;;;;;;;27.70;5.30;;;;;;;3.94;100.00;101426.77;104125;1292;61708;-33
2024/01/28 08:40:08;;;;;;;67.90;20.20;;;;;;;4.02;100.00;101422.68;104145;1285;61713;-29
2024/01/28 08:42:34;;;;;;;48.10;12.50;;;;;;;3.98;100.00;101433.26;104233;1285;61637;-33
2024/01/28 08:45:00;;;;;;;15.30;4.00;;;;;;;4.04;100.00;101438.14;104120;1286;61710;-32
2024/01/28 08:47:26;;;;;;;46.30;14.90;;;;;;;4.14;100.00;101441.73;104091;1286;61701;-33
2024/01/28 08:49:52;;;;;;;34.40;9.40;;;;;;;4.17;100.00;101442.58;104145;1285;61700;-32
2024/01/28 08:52:20;;;;;;;17.10;4.60;;;;;;;4.29;100.00;101437.54;104154;1286;61721;-30
2024/01/28 08:54:46;;;;;;;24.40;5.70;;;;;;;4.21;100.00;101447.86;104096;1280;61566;-30
2024/01/28 08:57:12;;;;;;;;;;;;;;;4.31;100.00;101447.83;104168;1283;62033;-31
2024/01/28 08:59:38;;;;;;;19.90;5.50;;;;;;;4.39;100.00;101450.29;104122;1285;61614;-31
2024/01/28 09:02:03;;;;;;;27.80;7.80;;;;;;;4.41;100.00;101443.03;104071;1285;61717;-33
2024/01/28 09:04:29;;;;;;;;;;;;;;;4.25;100.00;101444.67;104128;1286;61697;-32
2024/01/28 09:06:55;;;;;;;24.70;7.80;;;;;;;4.30;100.00;101447.73;104036;1292;61714;-32
2024/01/28 09:09:21;;;;;;;29.90;7.80;;;;;;;4.44;100.00;101446.08;104048;1285;61716;-31
2024/01/28 09:11:47;;;;;;;23.70;6.90;;;;;;;4.47;100.00;101444.80;104167;1283;61705;-30
2024/01/28 09:14:13;;;;;;;24.70;7.00;;;;;;;4.60;100.00;101444.73;104150;1292;61700;-31
2024/01/28 09:16:38;;;;;;;25.00;6.50;;;;;;;4.59;99.75;101446.38;104211;1280;61696;-31
2024/01/28 09:19:04;;;;;;;21.00;6.70;;;;;;;4.64;99.68;101443.90;103998;1283;72391;-30
2024/01/28 09:21:30;;;;;;;19.70;5.90;;;;;;;4.65;99.73;101443.66;104076;1283;61698;-30
2024/01/28 09:23:57;;;;;;;31.90;10.00;;;;;;;4.67;99.75;101441.92;104098;1285;61672;-32
2024/01/28 09:26:23;;;;;;;27.40;8.30;;;;;;;4.72;99.32;101445.35;104053;1280;61589;-29
2024/01/28 09:28:49;;;;;;;;;;;;;;;4.75;99.07;101443.85;104043;1284;61576;-32
2024/01/28 09:31:14;;;;;;;25.10;7.70;;;;;;;4.89;99.01;101443.05;104085;1292;61704;-32
2024/01/28 09:33:40;;;;;;;27.60;8.30;;;;;;;4.94;98.39;101443.23;103984;1285;61694;-30
2024/01/28 09:36:06;;;;;;;30.20;9.60;;;;;;;4.93;97.53;101439.37;104052;1296;61634;-32
2024/01/28 09:38:32;;;;;;;29.80;7.50;;;;;;;4.95;97.20;101439.77;104063;1279;61751;-33
2024/01/28 09:41:04;;;;;;;;;;;;;;;4.99;97.14;101443.18;103993;1284;61903;-31
2024/01/28 09:43:30;;;;;;;22.70;6.30;;;;;;;4.96;97.36;101445.00;104074;1280;73759;-33
2024/01/28 09:45:57;;;;;;;23.80;6.50;;;;;;;5.08;96.85;101443.78;104156;1280;61695;-33
2024/01/28 09:48:22;;;;;;;20.40;6.30;;;;;;;5.08;96.41;101442.57;104080;1286;61676;-30
2024/01/28 09:50:48;;;;;;;20.60;5.10;;;;;;;5.18;96.86;101444.11;103998;1295;61707;-33
2024/01/28 09:53:14;;;;;;;19.80;4.60;;;;;;;5.19;95.90;101446.77;104167;1285;61720;-33
2024/01/28 09:55:40;;;;;;;18.60;5.80;;;;;;;5.20;95.53;101452.19;104075;1286;61721;-32
2024/01/28 09:58:07;;;;;;;22.70;5.60;;;;;;;5.31;96.29;101456.86;104135;1293;61655;-30
2024/01/28 10:00:33;;;;;;;15.60;5.70;;;;;;;5.45;94.79;101462.23;104113;1285;62056;-30
2024/01/28 10:02:58;;;;;;;;;;;;;;;5.40;95.25;101463.88;104096;1280;61800;-30
2024/01/28 10:05:24;;;;;;;26.50;5.70;;;;;;;5.34;94.98;101467.68;104056;1284;61700;-32
2024/01/28 10:08:02;;;;;;;19.10;5.60;;;;;;;5.30;94.92;101470.46;104168;1296;61674;-32
2024/01/28 10:10:28;;;;;;;13.40;4.00;;;;;;;5.57;94.35;101475.23;104096;1280;61572;-31
2024/01/28 10:12:54;;;;;;;22.50;5.60;;;;;;;5.50;93.78;101477.90;104028;1285;61797;-34
2024/01/28 10:15:23;;;;;;;26.90;5.90;;;;;;;5.45;94.24;101475.25;104139;1292;61704;-31
2024/01/28 10:17:49;;;;;;;19.10;4.90;;;;;;;5.48;94.51;101474.45;104128;1285;72738;-32
2024/01/28 10:20:16;;;;;;;18.90;4.40;;;;;;;5.47;94.34;101469.39;104086;1279;61717;-31
2024/01/28 10:22:43;;;;;;;11.20;3.00;;;;;;;5.70;93.35;101467.53;104103;1283;61681;-31
2024/01/28 10:25:12;;;;;;;23.30;4.30;;;;;;;5.85;91.56;101466.56;104107;1280;61553;-32
2024/01/28 10:27:38;;;;;;;13.00;4.30;;;;;;;5.61;91.73;101464.98;104029;1285;73949;-33
2024/01/28 10:30:05;;;;;;;20.60;7.20;;;;;;;5.58;92.35;101457.05;104067;1283;67847;-33
2024/01/28 10:32:31;;;;;;;20.50;5.80;;;;;;;5.78;91.55;101454.42;103993;1283;71364;-32
2024/01/28 10:34:56;;;;;;;17.90;6.10;;;;;;;5.95;90.90;101451.41;104084;1279;61674;-33
2024/01/28 10:37:22;;;;;;;24.30;7.20;;;;;;;5.84;90.70;101450.62;104104;1284;61683;-33
2024/01/28 10:39:48;;;;;;;24.20;7.40;;;;;;;5.82;91.44;101444.88;104049;1286;61602;-31
2024/01/28 10:42:17;;;;;;;24.20;5.30;;;;;;;5.97;91.75;101442.71;104096;1285;61693;-32
2024/01/28 10:44:46;;;;;;;21.00;5.10;;;;;;;6.20;90.85;101445.11;104089;1279;61589;-32
2024/01/28 10:47:12;;;;;;;23.50;7.30;;;;;;;6.00;91.00;101450.30;104046;1283;70972;-32
2024/01/28 10:49:38;;;;;;;;;;;;;;;6.14;91.22;101445.25;104100;1284;61678;-32
2024/01/28 10:52:03;;;;;;;48.20;11.30;;;;;;;6.28;90.40;101442.49;104096;1296;61678;-32
2024/01/28 10:54:29;;;;;;;49.40;15.30;;;;;;;6.34;89.97;101439.20;103999;1284;61627;-31
2024/01/28 10:56:55;;;;;;;24.40;5.30;;;;;;;6.38;89.00;101443.84;103828;1287;61729;-33
2024/01/28 10:59:20;;;;;;;30.90;9.00;;;;;;;6.36;88.88;101443.46;104055;1292;62149;-32
2024/01/28 11:01:47;;;;;;;21.60;4.90;;;;;;;6.40;87.86;101444.61;104080;1283;61682;-33
2024/01/28 11:04:13;;;;;;;24.80;6.60;;;;;;;6.34;87.76;101443.83;104051;1280;61698;-34
2024/01/28 11:06:40;;;;;;;23.40;4.70;;;;;;;6.13;88.33;101445.49;104102;1283;61633;-32
2024/01/28 11:09:06;;;;;;;23.50;5.80;;;;;;;6.18;88.46;101445.05;104071;1280;74061;-32
2024/01/28 11:11:32;;;;;;;38.20;9.80;;;;;;;5.94;90.07;101447.38;103942;1282;61720;-33
2024/01/28 11:13:58;;;;;;;17.30;5.40;;;;;;;6.21;90.12;101447.89;104039;1283;61697;-32
2024/01/28 11:16:28;;;;;;;27.60;4.60;;;;;;;6.42;89.16;101450.67;103989;1297;61730;-31
2024/01/28 11:18:56;;;;;;;19.40;6.10;;;;;;;6.39;87.76;101448.25;104019;1283;61685;-33
2024/01/28 11:21:22;;;;;;;27.00;7.10;;;;;;;6.25;88.88;101445.39;104044;1280;61592;-32
2024/01/28 11:23:47;;;;;;;;;;;;;;;6.38;89.20;101445.85;104125;1283;61713;-31
2024/01/28 11:26:17;;;;;;;15.90;4.60;;;;;;;6.53;88.09;101450.49;104119;1289;61730;-31
2024/01/28 11:28:50;;;;;;;13.60;3.90;;;;;;;6.45;88.71;101446.53;104100;1285;72738;-32
2024/01/28 11:31:31;;;;;;;22.20;6.40;;;;;;;6.62;87.54;101447.30;104124;1280;61596;-31
2024/01/28 11:34:14;;;;;;;18.80;4.60;;;;;;;6.51;87.27;101445.89;104084;1280;61641;-33
2024/01/28 11:36:43;;;;;;;20.40;5.60;;;;;;;6.54;87.77;101442.59;104087;1279;61474;-31
2024/01/28 11:39:12;;;;;;;24.10;6.80;;;;;;;6.64;88.26;101442.20;104061;1280;74112;-33
2024/01/28 11:41:38;;;;;;;23.50;5.70;;;;;;;6.76;87.69;101445.11;104128;1285;68616;-32
2024/01/28 11:44:05;;;;;;;16.30;4.60;;;;;;;6.87;87.99;101438.61;104039;1283;61589;-31
2024/01/28 11:46:31;;;;;;;17.50;5.00;;;;;;;6.96;87.65;101436.27;104081;1283;61640;-31
2024/01/28 11:48:57;;;;;;;17.80;4.90;;;;;;;7.06;87.97;101439.02;104125;1280;61617;-31
2024/01/28 11:51:22;;;;;;;29.10;5.60;;;;;;;7.17;87.14;101439.88;104084;1283;61623;-31
2024/01/28 11:53:48;;;;;;;19.60;4.60;;;;;;;7.18;87.01;101437.16;104053;1285;61809;-31